Pindi Bhattian Weather



Pindi Bhattian's Current Weather

Temprature 6.74o clear sky

clear sky

Rain: 0 %

Min Temprature6.74o
Max Temprature6.74o
Humidity70
Wind Speed2.16 m/h
Sun Rise07:06:44
Sun Set17:27:26
Current Time: 18-Jan-2021 06:35:27
Lat/Lon: 31.8978, 73.273




Pindi Bhattian's Geo Location



Pindi Bhattian's Weather Forecast

Time Overall Temp Min Temp Max Temp Humidity Wind Speed Rain
18-Jan-2021 (Mon)
08:00:00 clear sky 7.710 7.710 8.030 66 2 m/h 0 %
11:00:00 clear sky 14.310 14.310 16.210 45 2.39 m/h 0 %
14:00:00 clear sky 18.920 18.920 19.710 30 2.01 m/h 0 %
17:00:00 clear sky 16.120 16.120 16.190 38 1.51 m/h 0 %
20:00:00 clear sky 11.990 11.990 11.990 46 1.74 m/h 0 %
23:00:00 clear sky 10.570 10.570 10.570 51 1.41 m/h 0 %
19-Jan-2021 (Tue)
02:00:00 clear sky 9.360 9.360 9.360 56 1.59 m/h 0 %
05:00:00 clear sky 8.810 8.810 8.810 56 1.45 m/h 0 %
08:00:00 clear sky 9.850 9.850 9.850 54 1.29 m/h 0 %
11:00:00 clear sky 18.360 18.360 18.360 32 2.06 m/h 0 %
14:00:00 clear sky 21.960 21.960 21.960 23 2.4 m/h 0 %
17:00:00 clear sky 18.000 18.000 18.000 30 1.45 m/h 0 %
20:00:00 clear sky 13.800 13.800 13.800 37 1.36 m/h 0 %
23:00:00 clear sky 11.820 11.820 11.820 42 1.7 m/h 0 %
20-Jan-2021 (Wed)
02:00:00 clear sky 10.520 10.520 10.520 46 1.37 m/h 0 %
05:00:00 clear sky 9.890 9.890 9.890 48 1.81 m/h 0 %
08:00:00 clear sky 10.920 10.920 10.920 45 1.9 m/h 0 %
11:00:00 clear sky 21.070 21.070 21.070 23 3.31 m/h 0 %
14:00:00 clear sky 24.400 24.400 24.400 18 4.28 m/h 0 %
17:00:00 clear sky 19.370 19.370 19.370 26 2.7 m/h 0 %
20:00:00 few clouds 14.460 14.460 14.460 34 2.42 m/h 0 %
23:00:00 broken clouds 13.140 13.140 13.140 36 2.39 m/h 0 %
21-Jan-2021 (Thu)
02:00:00 scattered clouds 11.420 11.420 11.420 40 1.57 m/h 0 %
05:00:00 few clouds 10.430 10.430 10.430 43 1.64 m/h 0 %
08:00:00 clear sky 11.410 11.410 11.410 42 1.44 m/h 0 %
11:00:00 clear sky 20.750 20.750 20.750 23 1.72 m/h 0 %
14:00:00 clear sky 24.160 24.160 24.160 18 1.89 m/h 0 %
17:00:00 clear sky 19.610 19.610 19.610 25 1.59 m/h 0 %
20:00:00 scattered clouds 15.040 15.040 15.040 32 2.52 m/h 0 %
23:00:00 scattered clouds 13.430 13.430 13.430 36 2.43 m/h 0 %
22-Jan-2021 (Fri)
02:00:00 scattered clouds 11.850 11.850 11.850 40 3.31 m/h 0 %
05:00:00 scattered clouds 10.410 10.410 10.410 45 3.09 m/h 0 %
08:00:00 few clouds 10.600 10.600 10.600 45 2.06 m/h 0 %
11:00:00 scattered clouds 19.010 19.010 19.010 27 2.92 m/h 0 %
14:00:00 overcast clouds 23.550 23.550 23.550 20 3 m/h 0 %
17:00:00 overcast clouds 20.020 20.020 20.020 28 2.24 m/h 0 %
20:00:00 clear sky 14.620 14.620 14.620 40 4.59 m/h 0 %
23:00:00 few clouds 12.380 12.380 12.380 50 3.36 m/h 0 %
23-Jan-2021 (Sat)
02:00:00 broken clouds 10.450 10.450 10.450 50 2.23 m/h 0 %
05:00:00 scattered clouds 8.820 8.820 8.820 53 1.26 m/h 0 %

Famous Cities (60)